This is the latest recevied weather packets stored in our database for station/object OE-11365. If no packets are shown the sender has not sent any weather packets the latest 10 day(s).
| Time | Temp. | Humidity | Pressure | Rain* | Wind** | Luminosity | Snow |
|---|---|---|---|---|---|---|---|
| 1787793931 | 16.11° C | 93% | 1018.3 hPa | 0 mm | - | 0 W/m² | - |
| 1787793104 | 16.11° C | 94% | 1018.1 hPa | 0 mm | - | 0 W/m² | - |
| 1787792731 | 15.56° C | 93% | 1018.3 hPa | 0 mm | - | 0 W/m² | - |
| 1787792131 | 16.11° C | 92% | 1018.3 hPa | 0 mm | - | 0 W/m² | - |
| 1787791304 | 16.11° C | 93% | 1018.5 hPa | 0 mm | - | 0 W/m² | - |
| 1787790931 | 16.11° C | 91% | 1018.3 hPa | 0 mm | - | 0 W/m² | - |
| 1787790331 | 16.11° C | 91% | 1018.3 hPa | 0 mm | - | 0 W/m² | - |
| 1787789503 | 16.11° C | 91% | 1018.4 hPa | 0 mm | - | 0 W/m² | - |
| 1787789131 | 16.11° C | 91% | 1018.4 hPa | 0 mm | - | 0 W/m² | - |
| 1787788531 | 16.67° C | 91% | 1018.3 hPa | 0 mm | - | 0 W/m² | - |
| 1787787704 | 16.67° C | 91% | 1018.4 hPa | 0 mm | - | 0 W/m² | - |
| 1787787331 | 16.67° C | 89% | 1018.2 hPa | 0 mm | - | 0 W/m² | - |
| 1787786731 | 16.67° C | 90% | 1018.1 hPa | 0 mm | - | 0 W/m² | - |
| 1787786131 | 16.67° C | 91% | 1018.3 hPa | 0 mm | - | 0 W/m² | - |
| 1787785531 | 16.67° C | 90% | 1018.2 hPa | 0 mm | - | 0 W/m² | - |
| 1787784931 | 16.67° C | 90% | 1018.3 hPa | 0 mm | - | 0 W/m² | - |
| 1787784104 | 16.67° C | 91% | 1018.4 hPa | 0 mm | - | 0 W/m² | - |
| 1787783731 | 17.22° C | 88% | 1018.2 hPa | 0 mm | - | 0 W/m² | - |
| 1787783130 | 18.33° C | 84% | 1017.9 hPa | 0 mm | - | 0 W/m² | - |
| 1787782305 | 18.33° C | 83% | 1018 hPa | 0 mm | - | 0 W/m² | - |
| 1787781931 | 18.33° C | 84% | 1018 hPa | 0 mm | - | 0 W/m² | - |
| 1787781330 | 18.33° C | 83% | 1017.9 hPa | 0 mm | - | 0 W/m² | - |
| 1787780505 | 18.33° C | 83% | 1017.8 hPa | 0 mm | - | 0 W/m² | - |
| 1787780131 | 17.78° C | 88% | 1018 hPa | 0 mm | - | 0 W/m² | - |
| 1787779531 | 17.78° C | 85% | 1017.9 hPa | 0 mm | - | 0 W/m² | - |
* Rain latest hour (hover to see other rain measurements)
** Current wind speed in m/s (hover to see current wind gust speed)